MSC Clorinda — 3FDW7 — position and weather

sailwx.info

Track history (hours):
 
Tides and Currents Weather Stations Pressure Air Temp Water Temp Dewpoint Dewpoint Depression Visibility Wind Speed Wind Dir Waves Ship Positions

MSC Clorinda

Last reported at 2014-Aug-23 02:33 UTC. Time now 2014-Aug-23 13:31 UTC.
Position N 29°39' E 122°37'.

Length 366 m; draft 10.2 m.

Type: Ship (hazmat cat A). MMSI: 373233000.

Date/timePositionNaut miles runAvg speedWind from/ knotsBaromVisibWave heightAir tempDewpointWater temp
2014-Aug-23 02:33N 29°39' E 122°37'1111.2
2014-Aug-23 01:33N 29°42' E 122°25'1211.9
2014-Aug-23 00:33N 29°49' E 122°14'1110.7
2014-Aug-22 23:33N 29°54' E 122°03'0 0.2
2014-Aug-22 22:32N 29°54' E 122°02'0 0.0
2014-Aug-22 21:32N 29°54' E 122°02'0 0.0
2014-Aug-22 20:31N 29°54' E 122°02'0 0.0
2014-Aug-22 19:32N 29°54' E 122°02'0 0.0
2014-Aug-22 18:31N 29°54' E 122°02'0 0.0
2014-Aug-22 17:25N 29°54' E 122°02'0 0.0
2014-Aug-22 16:25N 29°54' E 122°02'0 0.0
2014-Aug-22 15:31N 29°54' E 122°02'0 0.0
2014-Aug-22 14:32N 29°54' E 122°02'0 0.0
2014-Aug-22 13:31N 29°54' E 122°02'0 0.0
2014-Aug-22 12:31N 29°54' E 122°02'0 0.0
2014-Aug-22 11:31N 29°54' E 122°02'0 0.0
2014-Aug-22 10:31N 29°54' E 122°02'0 0.0
2014-Aug-22 09:31N 29°54' E 122°02'0 0.0
2014-Aug-22 08:31N 29°54' E 122°02'0 0.0
2014-Aug-22 07:31N 29°54' E 122°02'0 0.0
2014-Aug-22 06:31N 29°54' E 122°02'0 0.0
2014-Aug-22 05:31N 29°54' E 122°02'0 0.0
2014-Aug-22 04:31N 29°54' E 122°02'0 0.0
2014-Aug-22 03:33N 29°54' E 122°02'6 5.5
2014-Aug-22 02:33N 29°55' E 122°08'1111.4
2014-Aug-22 01:33N 29°47' E 122°17'9 9.5
2014-Aug-22 00:33N 29°44' E 122°27'1111.1
2014-Aug-21 23:33N 29°45' E 122°40'1514.8
2014-Aug-21 22:33N 29°55' E 122°53'8514.2
2014-Aug-21 16:33N 30°57' E 123°60'34413.6
2014-Aug-20 15:12N 35°57' E 120°39'1015.2
2014-Aug-20 14:33N 35°60' E 120°27'1110.7
2014-Aug-20 13:33N 36°01' E 120°13'1 0.8
2014-Aug-20 12:14N 36°00' E 120°12'0 0.0
2014-Aug-20 11:33N 36°00' E 120°12'0 0.0
2014-Aug-20 10:29N 36°00' E 120°12'0 0.0
2014-Aug-20 09:19N 36°00' E 120°12'0 0.0
2014-Aug-20 08:30N 36°00' E 120°12'0 0.0
2014-Aug-20 07:09N 36°00' E 120°12'0 0.0
2014-Aug-20 05:22N 36°00' E 120°12'0 0.0
2014-Aug-20 04:27N 36°00' E 120°12'0 0.0
2014-Aug-20 03:33N 36°00' E 120°12'0 0.0
2014-Aug-20 02:20N 36°00' E 120°12'0 0.5
2014-Aug-20 01:32N 36°01' E 120°13'9 9.1
2014-Aug-20 00:33N 36°01' E 120°24'1212.1
2014-Aug-19 23:33N 35°58' E 120°39'  
2014-Aug-16 15:27N 33°51' E 125°48'19611.6
2014-Aug-15 22:32N 36°51' E 124°11'1612.0
2014-Aug-15 21:13N 37°06' E 124°07'912.8
2014-Aug-15 20:33N 37°15' E 124°05'1513.6
2014-Aug-15 19:28N 37°28' E 123°59'4213.7
2014-Aug-15 16:24N 37°57' E 123°20'6412.0
2014-Aug-15 11:08N 38°39' E 122°19'712.5
2014-Aug-15 10:34N 38°43' E 122°12'1312.7
2014-Aug-15 09:33N 38°52' E 122°00'4 0.3
2014-Aug-14 20:34N 38°52' E 121°55'1413.7
2014-Aug-14 19:33N 38°40' E 121°46'1312.7
2014-Aug-14 18:33N 38°30' E 121°35'1313.4
2014-Aug-14 17:33N 38°25' E 121°20'1312.3
2014-Aug-14 16:29N 38°28' E 121°04'13413.5
2014-Aug-14 06:33N 38°51' E 118°14'1211.7
2014-Aug-14 05:33N 38°56' E 118°01'1111.1
2014-Aug-14 04:34N 38°59' E 117°47'1 0.7
2014-Aug-14 03:33N 39°00' E 117°47'0 0.0
2014-Aug-14 02:33N 39°00' E 117°47'0 0.0
2014-Aug-14 01:33N 39°00' E 117°47'0 0.0
2014-Aug-14 00:33N 39°00' E 117°47'0 0.0
2014-Aug-13 23:33N 39°00' E 117°47'0 0.0
2014-Aug-13 22:33N 39°00' E 117°47'0 0.0
2014-Aug-13 21:32N 39°00' E 117°47'0 0.0
2014-Aug-13 20:33N 39°00' E 117°47'0 0.0
2014-Aug-13 19:33N 39°00' E 117°47'0 0.0
2014-Aug-13 18:33N 39°00' E 117°47'0 0.0
2014-Aug-13 17:33N 39°00' E 117°47'0 0.0
2014-Aug-13 16:33N 39°00' E 117°47'0 0.0
2014-Aug-13 15:33N 39°00' E 117°47'0 0.0
2014-Aug-13 14:33N 39°00' E 117°47'0 0.0
2014-Aug-13 13:33N 39°00' E 117°47'0 0.0
2014-Aug-13 12:33N 39°00' E 117°47'0 0.0
2014-Aug-13 11:33N 39°00' E 117°47'0 0.0
2014-Aug-13 10:33N 39°00' E 117°47'0 0.0
2014-Aug-13 09:33N 39°00' E 117°47'0 0.0
2014-Aug-13 08:33N 39°00' E 117°47'0 0.0
2014-Aug-13 07:33N 39°00' E 117°47'0 0.0
2014-Aug-13 06:33N 39°00' E 117°47'0 0.0
2014-Aug-13 05:33N 39°00' E 117°47'0 0.0
2014-Aug-13 04:33N 39°00' E 117°47'0 0.0
2014-Aug-13 03:33N 39°00' E 117°47'  
Track history (hours):
 
Tides and Currents Weather Stations Pressure Air Temp Water Temp Dewpoint Dewpoint Depression Visibility Wind Speed Wind Dir Waves Ship Positions

MSC Clorinda

Last reported at 2014-Aug-23 02:33 UTC. Time now 2014-Aug-23 13:31 UTC.
Position N 29°39' E 122°37'.

Length 366 m; draft 10.2 m.

Type: Ship (hazmat cat A). MMSI: 373233000.

Date/timePositionNaut miles runAvg speedWind from/ knotsBaromVisibWave heightAir tempDewpointWater temp
2014-Aug-23 02:33N 29°39' E 122°37'1111.2
2014-Aug-23 01:33N 29°42' E 122°25'1211.9
2014-Aug-23 00:33N 29°49' E 122°14'1110.7
2014-Aug-22 23:33N 29°54' E 122°03'0 0.2
2014-Aug-22 22:32N 29°54' E 122°02'0 0.0
2014-Aug-22 21:32N 29°54' E 122°02'0 0.0
2014-Aug-22 20:31N 29°54' E 122°02'0 0.0
2014-Aug-22 19:32N 29°54' E 122°02'0 0.0
2014-Aug-22 18:31N 29°54' E 122°02'0 0.0
2014-Aug-22 17:25N 29°54' E 122°02'0 0.0
2014-Aug-22 16:25N 29°54' E 122°02'0 0.0
2014-Aug-22 15:31N 29°54' E 122°02'0 0.0
2014-Aug-22 14:32N 29°54' E 122°02'0 0.0
2014-Aug-22 13:31N 29°54' E 122°02'0 0.0
2014-Aug-22 12:31N 29°54' E 122°02'0 0.0
2014-Aug-22 11:31N 29°54' E 122°02'0 0.0
2014-Aug-22 10:31N 29°54' E 122°02'0 0.0
2014-Aug-22 09:31N 29°54' E 122°02'0 0.0
2014-Aug-22 08:31N 29°54' E 122°02'0 0.0
2014-Aug-22 07:31N 29°54' E 122°02'0 0.0
2014-Aug-22 06:31N 29°54' E 122°02'0 0.0
2014-Aug-22 05:31N 29°54' E 122°02'0 0.0
2014-Aug-22 04:31N 29°54' E 122°02'0 0.0
2014-Aug-22 03:33N 29°54' E 122°02'6 5.5
2014-Aug-22 02:33N 29°55' E 122°08'1111.4
2014-Aug-22 01:33N 29°47' E 122°17'9 9.5
2014-Aug-22 00:33N 29°44' E 122°27'1111.1
2014-Aug-21 23:33N 29°45' E 122°40'1514.8
2014-Aug-21 22:33N 29°55' E 122°53'8514.2
2014-Aug-21 16:33N 30°57' E 123°60'34413.6
2014-Aug-20 15:12N 35°57' E 120°39'1015.2
2014-Aug-20 14:33N 35°60' E 120°27'1110.7
2014-Aug-20 13:33N 36°01' E 120°13'1 0.8
2014-Aug-20 12:14N 36°00' E 120°12'0 0.0
2014-Aug-20 11:33N 36°00' E 120°12'0 0.0
2014-Aug-20 10:29N 36°00' E 120°12'0 0.0
2014-Aug-20 09:19N 36°00' E 120°12'0 0.0
2014-Aug-20 08:30N 36°00' E 120°12'0 0.0
2014-Aug-20 07:09N 36°00' E 120°12'0 0.0
2014-Aug-20 05:22N 36°00' E 120°12'0 0.0
2014-Aug-20 04:27N 36°00' E 120°12'0 0.0
2014-Aug-20 03:33N 36°00' E 120°12'0 0.0
2014-Aug-20 02:20N 36°00' E 120°12'0 0.5
2014-Aug-20 01:32N 36°01' E 120°13'9 9.1
2014-Aug-20 00:33N 36°01' E 120°24'1212.1
2014-Aug-19 23:33N 35°58' E 120°39'  
2014-Aug-16 15:27N 33°51' E 125°48'19611.6
2014-Aug-15 22:32N 36°51' E 124°11'1612.0
2014-Aug-15 21:13N 37°06' E 124°07'912.8
2014-Aug-15 20:33N 37°15' E 124°05'1513.6
2014-Aug-15 19:28N 37°28' E 123°59'4213.7
2014-Aug-15 16:24N 37°57' E 123°20'6412.0
2014-Aug-15 11:08N 38°39' E 122°19'712.5
2014-Aug-15 10:34N 38°43' E 122°12'1312.7
2014-Aug-15 09:33N 38°52' E 122°00'4 0.3
2014-Aug-14 20:34N 38°52' E 121°55'1413.7
2014-Aug-14 19:33N 38°40' E 121°46'1312.7
2014-Aug-14 18:33N 38°30' E 121°35'1313.4
2014-Aug-14 17:33N 38°25' E 121°20'1312.3
2014-Aug-14 16:29N 38°28' E 121°04'13413.5
2014-Aug-14 06:33N 38°51' E 118°14'1211.7
2014-Aug-14 05:33N 38°56' E 118°01'1111.1
2014-Aug-14 04:34N 38°59' E 117°47'1 0.7
2014-Aug-14 03:33N 39°00' E 117°47'0 0.0
2014-Aug-14 02:33N 39°00' E 117°47'0 0.0
2014-Aug-14 01:33N 39°00' E 117°47'0 0.0
2014-Aug-14 00:33N 39°00' E 117°47'0 0.0
2014-Aug-13 23:33N 39°00' E 117°47'0 0.0
2014-Aug-13 22:33N 39°00' E 117°47'0 0.0
2014-Aug-13 21:32N 39°00' E 117°47'0 0.0
2014-Aug-13 20:33N 39°00' E 117°47'0 0.0
2014-Aug-13 19:33N 39°00' E 117°47'0 0.0
2014-Aug-13 18:33N 39°00' E 117°47'0 0.0
2014-Aug-13 17:33N 39°00' E 117°47'0 0.0
2014-Aug-13 16:33N 39°00' E 117°47'0 0.0
2014-Aug-13 15:33N 39°00' E 117°47'0 0.0
2014-Aug-13 14:33N 39°00' E 117°47'0 0.0
2014-Aug-13 13:33N 39°00' E 117°47'0 0.0
2014-Aug-13 12:33N 39°00' E 117°47'0 0.0
2014-Aug-13 11:33N 39°00' E 117°47'0 0.0
2014-Aug-13 10:33N 39°00' E 117°47'0 0.0
2014-Aug-13 09:33N 39°00' E 117°47'0 0.0
2014-Aug-13 08:33N 39°00' E 117°47'0 0.0
2014-Aug-13 07:33N 39°00' E 117°47'0 0.0
2014-Aug-13 06:33N 39°00' E 117°47'0 0.0
2014-Aug-13 05:33N 39°00' E 117°47'0 0.0
2014-Aug-13 04:33N 39°00' E 117°47'0 0.0
2014-Aug-13 03:33N 39°00' E 117°47'  

Dump ship's entire track history